createdAt,value
2023-01-30T00:01:15.143Z,1.12
2023-01-30T00:03:42.618Z,1.15
2023-01-30T00:06:11.119Z,1.15
2023-01-30T00:08:38.708Z,1.16
2023-01-30T00:11:10.082Z,1.18
2023-01-30T00:13:39.172Z,1.14
2023-01-30T00:16:07.429Z,1.10
2023-01-30T00:18:34.883Z,1.11
2023-01-30T00:21:05.362Z,1.16
2023-01-30T00:23:35.260Z,1.19
2023-01-30T00:26:04.617Z,1.20
2023-01-30T00:28:32.423Z,1.19
2023-01-30T00:31:00.131Z,1.22
2023-01-30T00:33:27.932Z,1.20
2023-01-30T00:35:57.459Z,1.23
2023-01-30T00:38:25.650Z,1.22
2023-01-30T00:40:53.017Z,1.18
2023-01-30T00:43:39.832Z,1.21
2023-01-30T00:46:44.961Z,1.21
2023-01-30T00:49:12.705Z,1.22
2023-01-30T00:51:40.150Z,1.25
2023-01-30T00:54:07.719Z,1.24
2023-01-30T00:56:35.101Z,1.20
2023-01-30T00:59:02.575Z,1.03
2023-01-30T01:01:29.985Z,0.97
2023-01-30T01:03:57.451Z,0.95
2023-01-30T01:06:24.941Z,0.89
2023-01-30T01:08:52.453Z,0.83
2023-01-30T01:11:25.874Z,0.83
2023-01-30T01:13:59.933Z,0.88
2023-01-30T01:16:30.786Z,0.82
2023-01-30T01:18:59.686Z,0.80
2023-01-30T01:21:27.625Z,0.78
2023-01-30T01:23:59.644Z,0.76
2023-01-30T01:26:27.405Z,0.71
2023-01-30T01:28:56.895Z,0.65
2023-01-30T01:31:25.667Z,0.58
2023-01-30T01:33:53.190Z,0.55
2023-01-30T01:36:49.670Z,0.55
2023-01-30T01:39:10.044Z,0.58
2023-01-30T01:41:37.424Z,0.53
2023-01-30T01:44:10.147Z,0.46
2023-01-30T01:46:48.591Z,0.45
2023-01-30T01:49:29.008Z,0.46
2023-01-30T01:52:07.840Z,0.46
2023-01-30T01:54:47.298Z,0.46
2023-01-30T01:57:36.325Z,0.48
2023-01-30T02:00:15.364Z,0.49
2023-01-30T02:02:49.497Z,0.47
2023-01-30T02:05:20.602Z,0.50
2023-01-30T02:07:59.446Z,0.49
2023-01-30T02:10:48.783Z,0.46
2023-01-30T02:13:17.082Z,0.49
2023-01-30T02:15:45.210Z,0.53
2023-01-30T02:18:14.889Z,0.54
2023-01-30T02:21:09.700Z,0.53
2023-01-30T02:24:21.509Z,0.57
2023-01-30T02:27:14.458Z,0.59
2023-01-30T02:30:29.811Z,0.56
2023-01-30T02:33:15.105Z,0.57
2023-01-30T02:36:12.391Z,0.54
2023-01-30T02:39:02.405Z,0.55
2023-01-30T02:41:57.303Z,0.52
2023-01-30T02:44:45.740Z,0.56
2023-01-30T02:47:27.464Z,0.55
2023-01-30T02:50:28.341Z,0.47
2023-01-30T02:52:57.725Z,0.45
2023-01-30T02:55:28.820Z,0.46
2023-01-30T02:57:57.456Z,0.46
2023-01-30T03:01:05.868Z,0.52
2023-01-30T03:03:57.613Z,0.54
2023-01-30T03:07:03.987Z,0.54
2023-01-30T03:10:00.754Z,0.53
2023-01-30T03:13:05.492Z,0.53
2023-01-30T03:16:11.603Z,0.56
2023-01-30T03:18:44.896Z,0.57
2023-01-30T03:21:17.252Z,0.59
2023-01-30T03:23:46.927Z,0.59
2023-01-30T03:26:22.689Z,0.58
2023-01-30T03:28:53.018Z,0.58
2023-01-30T03:31:21.192Z,0.50
2023-01-30T03:33:49.885Z,0.49
2023-01-30T03:36:17.993Z,0.51
2023-01-30T03:38:45.922Z,0.54
2023-01-30T03:41:13.440Z,0.53
2023-01-30T03:43:41.045Z,0.49
2023-01-30T03:46:08.495Z,0.51
2023-01-30T03:48:36.034Z,0.52
2023-01-30T03:51:03.519Z,0.55
2023-01-30T03:53:30.890Z,0.55
2023-01-30T03:55:59.137Z,0.56
2023-01-30T03:58:31.343Z,0.52
2023-01-30T04:01:01.505Z,0.51
2023-01-30T04:03:29.056Z,0.48
2023-01-30T04:05:59.599Z,0.47
2023-01-30T04:08:27.065Z,0.49
2023-01-30T04:10:54.592Z,0.52
2023-01-30T04:13:24.087Z,0.52
2023-01-30T04:15:52.484Z,0.62
2023-01-30T04:18:45.607Z,0.60
2023-01-30T04:21:21.094Z,0.58
2023-01-30T04:23:48.470Z,0.62
2023-01-30T04:26:16.380Z,0.59
2023-01-30T04:28:44.599Z,0.57
2023-01-30T04:31:14.346Z,0.57
2023-01-30T04:33:53.158Z,0.53
2023-01-30T04:36:20.640Z,0.53
2023-01-30T04:38:48.030Z,0.53
2023-01-30T04:41:18.194Z,0.40
2023-01-30T04:43:45.817Z,0.26
2023-01-30T04:46:31.723Z,0.32
2023-01-30T04:48:59.184Z,0.37
2023-01-30T04:51:27.056Z,0.40
2023-01-30T04:53:54.488Z,0.46
2023-01-30T04:56:21.962Z,0.46
2023-01-30T04:58:50.811Z,0.35
2023-01-30T05:01:25.940Z,0.47
2023-01-30T05:03:54.499Z,0.40
2023-01-30T05:06:23.144Z,0.48
2023-01-30T05:08:52.003Z,0.58
2023-01-30T05:11:20.376Z,0.56
2023-01-30T05:13:48.028Z,0.52
2023-01-30T05:16:17.692Z,0.53
2023-01-30T05:18:45.945Z,0.53
2023-01-30T05:21:17.459Z,0.50
2023-01-30T05:23:45.274Z,0.53
2023-01-30T05:26:16.132Z,0.51
2023-01-30T05:28:43.772Z,0.51
2023-01-30T05:31:14.411Z,0.51
2023-01-30T05:33:41.867Z,0.54
2023-01-30T05:36:16.200Z,0.39
2023-01-30T05:38:44.965Z,0.43
2023-01-30T05:41:14.581Z,0.36
2023-01-30T05:43:41.949Z,0.41
2023-01-30T05:46:11.993Z,0.51
2023-01-30T05:48:39.883Z,0.49
2023-01-30T05:51:14.781Z,0.52
2023-01-30T05:53:42.099Z,0.47
2023-01-30T05:56:09.616Z,0.52
2023-01-30T05:58:36.945Z,0.48
2023-01-30T06:01:09.609Z,0.53
2023-01-30T06:03:37.581Z,0.52
2023-01-30T06:06:06.408Z,0.57
2023-01-30T06:08:34.236Z,0.59
2023-01-30T06:11:09.381Z,0.60
2023-01-30T06:13:37.470Z,0.58
2023-01-30T06:16:06.937Z,0.59
2023-01-30T06:18:35.380Z,0.62
2023-01-30T06:21:02.779Z,0.66
2023-01-30T06:23:30.337Z,0.62
2023-01-30T06:25:57.838Z,0.67
2023-01-30T06:28:26.627Z,0.70
2023-01-30T06:30:54.695Z,0.73
2023-01-30T06:33:22.233Z,0.75
2023-01-30T06:35:51.560Z,0.77
2023-01-30T06:38:20.754Z,0.71
2023-01-30T06:40:50.275Z,0.72
2023-01-30T06:43:18.507Z,0.72
2023-01-30T06:45:45.869Z,0.76
2023-01-30T06:48:13.401Z,0.80
2023-01-30T06:50:40.735Z,0.74
2023-01-30T06:53:08.746Z,0.74
2023-01-30T06:55:36.584Z,0.89
2023-01-30T06:58:09.942Z,0.81
2023-01-30T07:00:40.047Z,0.70
2023-01-30T07:03:16.489Z,0.87
2023-01-30T07:05:46.082Z,0.80
2023-01-30T07:08:15.764Z,0.88
2023-01-30T07:10:44.521Z,1.11
2023-01-30T07:13:12.709Z,1.21
2023-01-30T07:15:40.394Z,1.18
2023-01-30T07:18:08.178Z,1.26
2023-01-30T07:20:35.622Z,1.37
2023-01-30T07:23:03.886Z,1.39
2023-01-30T07:25:31.353Z,1.42
2023-01-30T07:28:01.552Z,1.40
2023-01-30T07:30:32.968Z,1.25
2023-01-30T07:33:01.063Z,1.37
2023-01-30T07:35:34.725Z,1.56
2023-01-30T07:38:02.183Z,1.81
2023-01-30T07:40:29.580Z,1.89
2023-01-30T07:43:16.143Z,1.96
2023-01-30T07:45:48.775Z,1.86
2023-01-30T07:48:19.257Z,2.00
2023-01-30T07:50:47.319Z,2.06
2023-01-30T07:53:18.613Z,2.00
2023-01-30T07:55:46.210Z,2.17
2023-01-30T07:58:15.967Z,2.19
2023-01-30T08:00:44.105Z,2.16
2023-01-30T08:03:17.114Z,2.12
2023-01-30T08:05:47.059Z,2.32
2023-01-30T08:08:15.102Z,1.99
2023-01-30T08:10:43.366Z,2.20
2023-01-30T08:13:10.776Z,2.52
2023-01-30T08:15:38.187Z,2.77
2023-01-30T08:18:07.413Z,2.71
2023-01-30T08:20:36.359Z,2.82
2023-01-30T08:23:04.417Z,2.83
2023-01-30T08:25:31.820Z,2.73
2023-01-30T08:28:00.435Z,2.95
2023-01-30T08:30:30.353Z,2.90
2023-01-30T08:32:58.503Z,3.10
2023-01-30T08:35:25.968Z,3.34
2023-01-30T08:37:53.284Z,3.23
2023-01-30T08:40:20.973Z,3.41
2023-01-30T08:42:48.537Z,3.71
2023-01-30T08:45:16.002Z,3.35
2023-01-30T08:47:43.393Z,3.46
2023-01-30T08:50:11.291Z,3.59
2023-01-30T08:52:38.706Z,3.59
2023-01-30T08:55:06.473Z,3.98
2023-01-30T08:57:33.847Z,4.09
2023-01-30T09:00:01.394Z,4.01
2023-01-30T09:02:28.876Z,3.51
2023-01-30T09:04:56.150Z,3.69
2023-01-30T09:07:23.688Z,4.20
2023-01-30T09:09:51.030Z,4.31
2023-01-30T09:12:18.455Z,4.46
2023-01-30T09:14:45.742Z,3.54
2023-01-30T09:17:13.656Z,3.99
2023-01-30T09:19:40.938Z,3.91
2023-01-30T09:22:08.487Z,3.90
2023-01-30T09:24:36.153Z,3.87
2023-01-30T09:27:03.511Z,4.54
2023-01-30T09:29:31.058Z,4.64
2023-01-30T09:31:58.911Z,4.37
2023-01-30T09:34:28.766Z,4.83
2023-01-30T09:37:04.759Z,4.94
2023-01-30T09:39:32.454Z,5.08
2023-01-30T09:42:06.128Z,5.32
2023-01-30T09:45:11.029Z,6.05
2023-01-30T09:48:10.244Z,6.47
2023-01-30T09:50:53.805Z,5.66
2023-01-30T09:53:34.588Z,5.83
2023-01-30T09:56:02.140Z,5.94
2023-01-30T09:59:01.767Z,4.98
2023-01-30T10:02:17.257Z,5.20
2023-01-30T10:05:00.555Z,5.31
2023-01-30T10:07:43.471Z,6.04
2023-01-30T10:10:47.332Z,5.48
2023-01-30T10:13:48.628Z,5.32
2023-01-30T10:16:54.751Z,6.19
2023-01-30T10:19:35.984Z,6.57
2023-01-30T10:22:43.877Z,6.98
2023-01-30T10:25:32.751Z,7.61
2023-01-30T10:28:29.045Z,9.04
2023-01-30T10:31:07.161Z,9.55
2023-01-30T10:33:57.879Z,8.82
2023-01-30T10:36:48.243Z,8.25
2023-01-30T10:39:28.385Z,6.98
2023-01-30T10:42:08.438Z,7.19
2023-01-30T10:44:38.054Z,7.73
2023-01-30T10:47:47.295Z,7.10
2023-01-30T10:50:25.980Z,7.19
2023-01-30T10:53:12.501Z,7.51
2023-01-30T10:55:50.114Z,7.38
2023-01-30T10:58:52.113Z,6.97
2023-01-30T11:01:27.333Z,6.67
2023-01-30T11:04:04.481Z,6.92
2023-01-30T11:06:35.227Z,7.44
2023-01-30T11:09:04.051Z,8.16
2023-01-30T11:11:55.605Z,7.98
2023-01-30T11:14:23.123Z,7.84
2023-01-30T11:16:54.094Z,8.26
2023-01-30T11:19:32.517Z,9.02
2023-01-30T11:22:06.527Z,8.76
2023-01-30T11:24:43.688Z,8.77
2023-01-30T11:27:25.410Z,8.26
2023-01-30T11:30:24.592Z,8.72
2023-01-30T11:33:04.547Z,8.21
2023-01-30T11:35:34.663Z,7.77
2023-01-30T11:38:22.317Z,7.29
2023-01-30T11:40:49.720Z,7.04
2023-01-30T11:43:17.143Z,7.32
2023-01-30T11:45:50.451Z,6.75
2023-01-30T11:48:33.934Z,6.24
2023-01-30T11:51:11.523Z,5.87
2023-01-30T11:53:50.997Z,6.01
2023-01-30T11:56:34.731Z,5.67
2023-01-30T11:59:22.248Z,5.45
2023-01-30T12:01:50.138Z,5.25
2023-01-30T12:04:18.572Z,5.24
2023-01-30T12:06:45.964Z,5.54
2023-01-30T12:09:34.688Z,6.15
2023-01-30T12:12:02.213Z,6.06
2023-01-30T12:14:49.375Z,5.56
2023-01-30T12:17:31.840Z,5.37
2023-01-30T12:20:28.113Z,5.16
2023-01-30T12:23:15.626Z,5.21
2023-01-30T12:26:04.353Z,5.46
2023-01-30T12:28:53.615Z,5.72
2023-01-30T12:32:14.649Z,5.64
2023-01-30T12:34:45.570Z,5.81
2023-01-30T12:38:07.000Z,5.53
2023-01-30T12:40:48.562Z,5.42
2023-01-30T12:43:29.265Z,5.69
2023-01-30T12:46:23.016Z,5.57
2023-01-30T12:49:24.945Z,5.30
2023-01-30T12:52:25.326Z,5.15
2023-01-30T12:55:18.867Z,4.83
2023-01-30T12:58:20.429Z,4.74
2023-01-30T13:01:27.947Z,4.75
2023-01-30T13:04:07.346Z,5.01
2023-01-30T13:07:04.182Z,5.08
2023-01-30T13:09:56.290Z,5.15
2023-01-30T13:12:34.024Z,4.93
2023-01-30T13:15:26.551Z,4.89
2023-01-30T13:18:18.474Z,4.99
2023-01-30T13:21:15.748Z,5.02
2023-01-30T13:24:22.222Z,5.11
2023-01-30T13:26:52.160Z,5.31
2023-01-30T13:29:38.816Z,5.38
2023-01-30T13:32:30.104Z,5.72
2023-01-30T13:35:00.079Z,5.51
2023-01-30T13:37:28.894Z,5.68
2023-01-30T13:40:01.139Z,5.96
2023-01-30T13:43:15.185Z,5.84
2023-01-30T13:45:47.289Z,5.51
2023-01-30T13:48:48.476Z,5.75
2023-01-30T13:51:47.123Z,5.61
2023-01-30T13:55:01.108Z,5.38
2023-01-30T13:57:33.478Z,5.27
2023-01-30T14:00:24.814Z,4.96
2023-01-30T14:03:07.260Z,4.49
2023-01-30T14:06:00.976Z,4.53
2023-01-30T14:08:46.832Z,4.67
2023-01-30T14:11:32.412Z,4.68
2023-01-30T14:14:18.477Z,4.76
2023-01-30T14:16:51.014Z,4.63
2023-01-30T14:19:35.934Z,4.39
2023-01-30T14:22:19.880Z,4.30
2023-01-30T14:25:22.431Z,4.23
2023-01-30T14:27:55.609Z,4.33
2023-01-30T14:30:31.990Z,4.30
2023-01-30T14:33:02.211Z,4.18
2023-01-30T14:35:32.919Z,4.02
2023-01-30T14:38:20.111Z,4.03
2023-01-30T14:41:02.241Z,4.05
2023-01-30T14:43:41.607Z,4.03
2023-01-30T14:46:17.960Z,3.91
2023-01-30T14:48:49.985Z,3.92
2023-01-30T14:51:43.531Z,3.81
2023-01-30T14:54:14.569Z,3.73
2023-01-30T14:56:58.676Z,3.68
2023-01-30T14:59:31.489Z,3.46
2023-01-30T15:02:14.625Z,3.35
2023-01-30T15:04:57.482Z,3.23
2023-01-30T15:07:38.053Z,3.12
2023-01-30T15:10:44.699Z,2.92
2023-01-30T15:13:35.948Z,2.71
2023-01-30T15:16:21.080Z,2.59
2023-01-30T15:19:49.290Z,2.45
2023-01-30T15:22:41.063Z,2.30
2023-01-30T15:25:17.612Z,2.22
2023-01-30T15:28:14.835Z,2.10
2023-01-30T15:31:10.973Z,1.96
2023-01-30T15:33:47.650Z,1.89
2023-01-30T15:36:27.902Z,1.79
2023-01-30T15:39:19.909Z,1.74
2023-01-30T15:41:48.295Z,1.73
2023-01-30T15:44:43.725Z,1.73
2023-01-30T15:47:44.541Z,1.74
2023-01-30T15:50:12.244Z,1.78
2023-01-30T15:52:46.420Z,1.79
2023-01-30T15:55:27.841Z,1.84
2023-01-30T15:58:11.015Z,1.90
2023-01-30T16:00:46.583Z,1.94
2023-01-30T16:03:20.342Z,1.95
2023-01-30T16:05:56.721Z,1.94
2023-01-30T16:08:33.930Z,1.91
2023-01-30T16:11:02.023Z,1.88
2023-01-30T16:13:30.431Z,1.87
2023-01-30T16:16:10.486Z,1.86
2023-01-30T16:18:51.348Z,1.85
2023-01-30T16:21:40.070Z,1.88
2023-01-30T16:24:26.595Z,1.92
2023-01-30T16:27:02.680Z,1.94
2023-01-30T16:29:34.736Z,1.97
2023-01-30T16:32:02.350Z,1.99
2023-01-30T16:34:37.239Z,2.02
2023-01-30T16:37:24.955Z,2.03
2023-01-30T16:40:23.837Z,2.04
2023-01-30T16:43:25.709Z,2.05
2023-01-30T16:45:53.168Z,2.04
2023-01-30T16:48:22.719Z,2.03
2023-01-30T16:51:00.221Z,2.01
2023-01-30T16:53:33.309Z,2.01
2023-01-30T16:56:09.967Z,1.89
2023-01-30T16:58:38.607Z,1.82
2023-01-30T17:01:08.435Z,1.75
2023-01-30T17:03:41.231Z,1.69
2023-01-30T17:06:46.258Z,1.57
2023-01-30T17:09:38.682Z,1.35
2023-01-30T17:12:36.267Z,1.16
2023-01-30T17:15:09.808Z,1.01
2023-01-30T17:17:37.313Z,0.91
2023-01-30T17:20:05.595Z,0.81
2023-01-30T17:22:33.859Z,0.76
2023-01-30T17:25:14.537Z,0.68
2023-01-30T17:27:41.910Z,0.61
2023-01-30T17:30:15.792Z,0.65
2023-01-30T17:32:43.171Z,0.73
2023-01-30T17:35:12.581Z,0.81
2023-01-30T17:37:40.103Z,0.89
2023-01-30T17:40:17.550Z,0.96
2023-01-30T17:42:46.505Z,0.98
2023-01-30T17:45:14.181Z,1.04
2023-01-30T17:47:41.562Z,1.07
2023-01-30T17:50:13.932Z,1.09
2023-01-30T17:52:41.885Z,1.12
2023-01-30T17:55:15.422Z,1.19
2023-01-30T17:57:48.037Z,1.20
2023-01-30T18:00:21.360Z,1.21
2023-01-30T18:02:49.620Z,1.21
2023-01-30T18:05:17.158Z,1.23
2023-01-30T18:07:44.767Z,1.27
2023-01-30T18:10:16.983Z,1.30
2023-01-30T18:12:45.519Z,1.28
2023-01-30T18:15:18.192Z,1.28
2023-01-30T18:17:48.963Z,1.30
2023-01-30T18:20:20.181Z,1.33
2023-01-30T18:22:47.770Z,1.33
2023-01-30T18:25:17.408Z,1.36
2023-01-30T18:27:47.294Z,1.37
2023-01-30T18:30:17.705Z,1.39
2023-01-30T18:32:53.648Z,1.37
2023-01-30T18:35:23.245Z,1.39
2023-01-30T18:37:51.144Z,1.40
2023-01-30T18:40:20.703Z,1.44
2023-01-30T18:42:48.354Z,1.48
2023-01-30T18:45:15.893Z,1.51
2023-01-30T18:47:43.295Z,1.54
2023-01-30T18:50:11.667Z,1.57
2023-01-30T18:52:39.010Z,1.58
2023-01-30T18:55:06.824Z,1.59
2023-01-30T18:57:34.261Z,1.59
2023-01-30T19:00:01.661Z,1.60
2023-01-30T19:02:28.973Z,1.60
2023-01-30T19:04:56.307Z,1.55
2023-01-30T19:07:23.675Z,1.52
2023-01-30T19:09:51.101Z,1.51
2023-01-30T19:12:36.980Z,1.54
2023-01-30T19:15:06.032Z,1.54
2023-01-30T19:17:33.394Z,1.48
2023-01-30T19:20:02.478Z,1.44
2023-01-30T19:22:29.815Z,1.42
2023-01-30T19:24:57.124Z,1.38
2023-01-30T19:27:25.906Z,1.35
2023-01-30T19:29:53.291Z,1.35
2023-01-30T19:32:20.669Z,1.38
2023-01-30T19:34:49.953Z,1.37
2023-01-30T19:37:18.102Z,1.38
2023-01-30T19:39:45.449Z,1.39
2023-01-30T19:42:12.998Z,1.40
2023-01-30T19:44:41.072Z,1.42
2023-01-30T19:47:09.389Z,1.43
2023-01-30T19:49:37.552Z,1.42
2023-01-30T19:52:05.338Z,1.46
2023-01-30T19:54:32.829Z,1.48
2023-01-30T19:57:00.234Z,1.51
2023-01-30T19:59:27.905Z,1.50
2023-01-30T20:01:55.409Z,1.52
2023-01-30T20:04:22.895Z,1.54
2023-01-30T20:06:50.260Z,1.53
2023-01-30T20:09:17.806Z,1.53
2023-01-30T20:11:45.410Z,1.55
2023-01-30T20:14:13.532Z,1.57
2023-01-30T20:16:41.003Z,1.55
2023-01-30T20:19:15.021Z,1.54
2023-01-30T20:21:43.887Z,1.52
2023-01-30T20:24:13.629Z,1.53
2023-01-30T20:26:41.899Z,1.50
2023-01-30T20:29:10.948Z,1.45
2023-01-30T20:31:39.634Z,1.47
2023-01-30T20:34:11.807Z,1.50
2023-01-30T20:36:39.326Z,1.44
2023-01-30T20:39:07.888Z,1.50
2023-01-30T20:41:36.593Z,1.52
2023-01-30T20:44:06.799Z,1.47
2023-01-30T20:46:43.869Z,1.43
2023-01-30T20:49:18.614Z,1.40
2023-01-30T20:51:48.868Z,1.37
2023-01-30T20:54:19.333Z,1.37
2023-01-30T20:56:50.821Z,1.36
2023-01-30T20:59:24.168Z,1.37
2023-01-30T21:01:52.867Z,1.37
2023-01-30T21:04:21.911Z,1.38
2023-01-30T21:06:49.207Z,1.36
2023-01-30T21:09:22.787Z,1.34
2023-01-30T21:11:53.026Z,1.32
2023-01-30T21:14:21.062Z,1.31
2023-01-30T21:16:50.142Z,1.30
2023-01-30T21:19:18.275Z,1.32
2023-01-30T21:21:53.969Z,1.30
2023-01-30T21:24:26.708Z,1.30
2023-01-30T21:26:55.878Z,1.31
2023-01-30T21:29:26.031Z,1.31
2023-01-30T21:31:55.659Z,1.33
2023-01-30T21:34:23.636Z,1.34
2023-01-30T21:37:09.441Z,1.39
2023-01-30T21:39:55.269Z,1.47
2023-01-30T21:42:41.325Z,1.57
2023-01-30T21:45:08.964Z,1.66
2023-01-30T21:47:36.995Z,1.78
2023-01-30T21:50:05.191Z,1.92
2023-01-30T21:52:33.352Z,2.00
2023-01-30T21:55:00.856Z,2.02
2023-01-30T21:57:28.273Z,2.05
2023-01-30T21:59:55.721Z,2.06
2023-01-30T22:02:23.183Z,2.06
2023-01-30T22:04:50.525Z,2.02
2023-01-30T22:07:17.936Z,2.02
2023-01-30T22:09:45.283Z,1.99
2023-01-30T22:12:12.578Z,1.94
2023-01-30T22:14:40.102Z,1.98
2023-01-30T22:17:07.458Z,1.98
2023-01-30T22:19:38.414Z,2.07
2023-01-30T22:22:06.169Z,2.15
2023-01-30T22:24:33.560Z,2.21
2023-01-30T22:27:00.910Z,2.21
2023-01-30T22:29:29.213Z,2.25
2023-01-30T22:31:56.719Z,2.24
2023-01-30T22:34:24.107Z,2.23
2023-01-30T22:36:51.836Z,2.27
2023-01-30T22:39:20.004Z,2.28
2023-01-30T22:41:47.337Z,2.24
2023-01-30T22:44:14.709Z,2.17
2023-01-30T22:46:42.299Z,2.17
2023-01-30T22:49:10.643Z,2.18
2023-01-30T22:51:41.050Z,2.11
2023-01-30T22:54:15.926Z,2.07
2023-01-30T22:56:48.641Z,2.05
2023-01-30T22:59:16.246Z,2.05
2023-01-30T23:01:50.773Z,1.97
2023-01-30T23:04:22.391Z,1.91
2023-01-30T23:06:51.897Z,1.90
2023-01-30T23:09:23.250Z,1.80
2023-01-30T23:12:13.831Z,1.73
2023-01-30T23:14:42.806Z,1.66
2023-01-30T23:17:29.375Z,1.65
2023-01-30T23:19:57.063Z,1.64
2023-01-30T23:22:24.606Z,1.60
2023-01-30T23:24:52.625Z,1.55
2023-01-30T23:27:21.274Z,1.56
2023-01-30T23:29:48.691Z,1.54
2023-01-30T23:32:19.846Z,1.55
2023-01-30T23:34:48.390Z,1.54
2023-01-30T23:37:16.874Z,1.56
2023-01-30T23:39:45.242Z,1.53
2023-01-30T23:42:12.615Z,1.52
2023-01-30T23:44:40.214Z,1.53
2023-01-30T23:47:07.644Z,1.54
2023-01-30T23:49:35.429Z,1.57
2023-01-30T23:52:02.766Z,1.57
2023-01-30T23:54:30.176Z,1.59
2023-01-30T23:56:57.580Z,1.59
2023-01-30T23:59:24.903Z,1.64
